sensor_id;sensor_type;location;lat;lon;timestamp;temperature;humidity
34815;DHT22;21030;53.912;15.214;2023-06-10T00:02:22;37.10;25.70
34815;DHT22;21030;53.912;15.214;2023-06-10T00:04:49;37.00;26.00
34815;DHT22;21030;53.912;15.214;2023-06-10T00:07:17;36.90;26.10
34815;DHT22;21030;53.912;15.214;2023-06-10T00:09:44;36.80;26.10
34815;DHT22;21030;53.912;15.214;2023-06-10T00:12:11;36.70;26.20
34815;DHT22;21030;53.912;15.214;2023-06-10T00:14:39;36.60;26.20
34815;DHT22;21030;53.912;15.214;2023-06-10T00:17:09;36.80;26.20
34815;DHT22;21030;53.912;15.214;2023-06-10T00:19:37;36.80;26.20
34815;DHT22;21030;53.912;15.214;2023-06-10T00:22:09;36.70;26.20
34815;DHT22;21030;53.912;15.214;2023-06-10T00:24:38;36.80;26.20
34815;DHT22;21030;53.912;15.214;2023-06-10T00:27:06;36.80;26.20
34815;DHT22;21030;53.912;15.214;2023-06-10T00:29:34;36.40;26.30
34815;DHT22;21030;53.912;15.214;2023-06-10T00:32:02;36.50;26.40
34815;DHT22;21030;53.912;15.214;2023-06-10T00:34:29;36.70;26.20
34815;DHT22;21030;53.912;15.214;2023-06-10T00:36:56;36.90;26.00
34815;DHT22;21030;53.912;15.214;2023-06-10T00:39:23;37.00;25.90
34815;DHT22;21030;53.912;15.214;2023-06-10T00:41:50;37.20;25.80
34815;DHT22;21030;53.912;15.214;2023-06-10T00:44:17;37.10;25.80
34815;DHT22;21030;53.912;15.214;2023-06-10T00:46:45;37.20;25.80
34815;DHT22;21030;53.912;15.214;2023-06-10T00:49:12;37.10;25.80
34815;DHT22;21030;53.912;15.214;2023-06-10T00:51:39;37.10;25.90
34815;DHT22;21030;53.912;15.214;2023-06-10T00:54:07;37.10;25.90
34815;DHT22;21030;53.912;15.214;2023-06-10T00:56:35;37.10;25.90
34815;DHT22;21030;53.912;15.214;2023-06-10T00:59:03;37.10;25.90
34815;DHT22;21030;53.912;15.214;2023-06-10T01:01:30;37.10;25.90
34815;DHT22;21030;53.912;15.214;2023-06-10T01:03:57;37.00;26.00
34815;DHT22;21030;53.912;15.214;2023-06-10T01:12:07;37.10;25.90
34815;DHT22;21030;53.912;15.214;2023-06-10T01:14:36;37.10;25.90
34815;DHT22;21030;53.912;15.214;2023-06-10T01:17:07;37.20;25.90
34815;DHT22;21030;53.912;15.214;2023-06-10T01:19:36;37.20;25.80
34815;DHT22;21030;53.912;15.214;2023-06-10T01:22:04;37.20;25.80
34815;DHT22;21030;53.912;15.214;2023-06-10T01:24:32;37.30;25.80
34815;DHT22;21030;53.912;15.214;2023-06-10T01:27:03;37.30;25.70
34815;DHT22;21030;53.912;15.214;2023-06-10T01:29:46;37.30;25.70
34815;DHT22;21030;53.912;15.214;2023-06-10T01:32:21;37.40;25.70
34815;DHT22;21030;53.912;15.214;2023-06-10T01:34:50;37.40;25.50
34815;DHT22;21030;53.912;15.214;2023-06-10T01:37:19;37.40;25.50
34815;DHT22;21030;53.912;15.214;2023-06-10T01:39:49;37.40;25.60
34815;DHT22;21030;53.912;15.214;2023-06-10T01:42:17;37.60;26.10
34815;DHT22;21030;53.912;15.214;2023-06-10T01:44:44;37.50;25.50
34815;DHT22;21030;53.912;15.214;2023-06-10T01:47:11;37.40;25.50
34815;DHT22;21030;53.912;15.214;2023-06-10T01:49:38;37.20;25.70
34815;DHT22;21030;53.912;15.214;2023-06-10T01:52:06;37.00;25.90
34815;DHT22;21030;53.912;15.214;2023-06-10T01:54:33;37.10;25.90
34815;DHT22;21030;53.912;15.214;2023-06-10T01:57:01;37.10;25.80
34815;DHT22;21030;53.912;15.214;2023-06-10T01:59:29;37.10;25.90
34815;DHT22;21030;53.912;15.214;2023-06-10T02:01:56;37.20;25.90
34815;DHT22;21030;53.912;15.214;2023-06-10T02:04:23;37.20;25.90
34815;DHT22;21030;53.912;15.214;2023-06-10T02:06:50;37.20;25.80
34815;DHT22;21030;53.912;15.214;2023-06-10T02:09:17;37.30;26.40
34815;DHT22;21030;53.912;15.214;2023-06-10T02:11:45;37.20;25.90
34815;DHT22;21030;53.912;15.214;2023-06-10T02:14:12;37.20;26.00
34815;DHT22;21030;53.912;15.214;2023-06-10T02:16:40;37.30;26.00
34815;DHT22;21030;53.912;15.214;2023-06-10T02:19:07;37.20;26.00
34815;DHT22;21030;53.912;15.214;2023-06-10T02:21:34;37.20;26.00
34815;DHT22;21030;53.912;15.214;2023-06-10T02:24:01;37.20;26.20
34815;DHT22;21030;53.912;15.214;2023-06-10T02:26:30;37.30;26.10
34815;DHT22;21030;53.912;15.214;2023-06-10T02:28:57;37.50;26.10
34815;DHT22;21030;53.912;15.214;2023-06-10T02:31:24;37.60;26.20
34815;DHT22;21030;53.912;15.214;2023-06-10T02:33:52;37.50;26.20
34815;DHT22;21030;53.912;15.214;2023-06-10T02:36:19;37.50;26.60
34815;DHT22;21030;53.912;15.214;2023-06-10T02:38:48;37.40;26.70
34815;DHT22;21030;53.912;15.214;2023-06-10T02:41:15;37.50;26.90
34815;DHT22;21030;53.912;15.214;2023-06-10T02:43:42;37.50;27.10
34815;DHT22;21030;53.912;15.214;2023-06-10T02:46:09;37.60;27.40
34815;DHT22;21030;53.912;15.214;2023-06-10T02:48:45;37.40;28.10
34815;DHT22;21030;53.912;15.214;2023-06-10T02:51:13;37.30;28.70
34815;DHT22;21030;53.912;15.214;2023-06-10T02:53:43;37.30;29.40
34815;DHT22;21030;53.912;15.214;2023-06-10T02:56:10;37.30;29.80
34815;DHT22;21030;53.912;15.214;2023-06-10T02:58:39;37.30;30.90
34815;DHT22;21030;53.912;15.214;2023-06-10T03:01:06;37.20;31.00
34815;DHT22;21030;53.912;15.214;2023-06-10T03:03:33;37.20;31.10
34815;DHT22;21030;53.912;15.214;2023-06-10T03:06:01;37.30;31.20
34815;DHT22;21030;53.912;15.214;2023-06-10T03:08:28;37.30;31.60
34815;DHT22;21030;53.912;15.214;2023-06-10T03:10:55;37.30;31.40
34815;DHT22;21030;53.912;15.214;2023-06-10T03:13:23;37.30;31.10
34815;DHT22;21030;53.912;15.214;2023-06-10T03:15:51;37.40;30.80
34815;DHT22;21030;53.912;15.214;2023-06-10T03:18:18;37.40;30.50
34815;DHT22;21030;53.912;15.214;2023-06-10T03:20:46;37.40;30.20
34815;DHT22;21030;53.912;15.214;2023-06-10T03:23:13;37.50;30.10
34815;DHT22;21030;53.912;15.214;2023-06-10T03:25:40;37.40;30.20
34815;DHT22;21030;53.912;15.214;2023-06-10T03:28:07;37.40;30.60
34815;DHT22;21030;53.912;15.214;2023-06-10T03:30:34;37.40;29.90
34815;DHT22;21030;53.912;15.214;2023-06-10T03:33:01;37.60;30.00
34815;DHT22;21030;53.912;15.214;2023-06-10T03:35:29;37.60;29.70
34815;DHT22;21030;53.912;15.214;2023-06-10T03:38:15;37.50;29.80
34815;DHT22;21030;53.912;15.214;2023-06-10T03:40:43;37.50;29.60
34815;DHT22;21030;53.912;15.214;2023-06-10T03:43:10;37.60;30.20
34815;DHT22;21030;53.912;15.214;2023-06-10T03:45:37;37.70;29.30
34815;DHT22;21030;53.912;15.214;2023-06-10T03:48:05;37.60;29.20
34815;DHT22;21030;53.912;15.214;2023-06-10T03:50:33;37.70;29.10
34815;DHT22;21030;53.912;15.214;2023-06-10T03:53:00;37.60;29.00
34815;DHT22;21030;53.912;15.214;2023-06-10T03:55:27;37.80;29.00
34815;DHT22;21030;53.912;15.214;2023-06-10T03:57:54;37.90;29.90
34815;DHT22;21030;53.912;15.214;2023-06-10T04:00:22;38.00;29.10
34815;DHT22;21030;53.912;15.214;2023-06-10T04:02:49;38.00;28.80
34815;DHT22;21030;53.912;15.214;2023-06-10T04:05:19;38.10;29.00
34815;DHT22;21030;53.912;15.214;2023-06-10T04:07:49;37.70;29.20
34815;DHT22;21030;53.912;15.214;2023-06-10T04:10:16;37.90;29.40
34815;DHT22;21030;53.912;15.214;2023-06-10T04:12:44;37.50;29.60
34815;DHT22;21030;53.912;15.214;2023-06-10T04:15:11;37.80;29.60
34815;DHT22;21030;53.912;15.214;2023-06-10T04:17:39;37.60;29.40
34815;DHT22;21030;53.912;15.214;2023-06-10T04:20:07;37.40;29.90
34815;DHT22;21030;53.912;15.214;2023-06-10T04:22:35;37.60;29.90
34815;DHT22;21030;53.912;15.214;2023-06-10T04:25:03;37.20;29.90
34815;DHT22;21030;53.912;15.214;2023-06-10T04:27:30;37.50;29.60
34815;DHT22;21030;53.912;15.214;2023-06-10T04:29:57;37.40;29.60
34815;DHT22;21030;53.912;15.214;2023-06-10T04:32:24;37.50;29.70
34815;DHT22;21030;53.912;15.214;2023-06-10T04:34:53;37.50;29.60
34815;DHT22;21030;53.912;15.214;2023-06-10T04:37:20;37.30;29.80
34815;DHT22;21030;53.912;15.214;2023-06-10T04:39:47;36.80;29.70
34815;DHT22;21030;53.912;15.214;2023-06-10T04:42:14;37.00;30.20
34815;DHT22;21030;53.912;15.214;2023-06-10T04:44:41;37.60;29.90
34815;DHT22;21030;53.912;15.214;2023-06-10T04:47:09;37.40;29.60
34815;DHT22;21030;53.912;15.214;2023-06-10T04:49:36;37.80;29.40
34815;DHT22;21030;53.912;15.214;2023-06-10T04:52:04;37.30;29.70
34815;DHT22;21030;53.912;15.214;2023-06-10T04:54:32;37.40;29.60
34815;DHT22;21030;53.912;15.214;2023-06-10T04:56:59;38.30;29.60
34815;DHT22;21030;53.912;15.214;2023-06-10T04:59:27;38.40;29.70
34815;DHT22;21030;53.912;15.214;2023-06-10T05:01:55;38.50;29.10
34815;DHT22;21030;53.912;15.214;2023-06-10T05:04:22;38.50;29.00
34815;DHT22;21030;53.912;15.214;2023-06-10T05:06:49;38.50;29.10
34815;DHT22;21030;53.912;15.214;2023-06-10T05:09:16;38.80;28.80
34815;DHT22;21030;53.912;15.214;2023-06-10T05:11:43;38.80;28.70
34815;DHT22;21030;53.912;15.214;2023-06-10T05:14:11;38.60;28.60
34815;DHT22;21030;53.912;15.214;2023-06-10T05:16:38;38.60;28.50
34815;DHT22;21030;53.912;15.214;2023-06-10T05:19:06;38.50;28.80
34815;DHT22;21030;53.912;15.214;2023-06-10T05:21:34;39.10;28.50
34815;DHT22;21030;53.912;15.214;2023-06-10T05:24:01;39.90;28.60
34815;DHT22;21030;53.912;15.214;2023-06-10T05:26:29;39.80;28.00
34815;DHT22;21030;53.912;15.214;2023-06-10T05:28:58;39.70;28.30
34815;DHT22;21030;53.912;15.214;2023-06-10T05:31:27;40.00;28.60
34815;DHT22;21030;53.912;15.214;2023-06-10T05:33:54;39.80;28.20
34815;DHT22;21030;53.912;15.214;2023-06-10T05:36:21;40.20;28.30
34815;DHT22;21030;53.912;15.214;2023-06-10T05:38:48;39.20;28.70
34815;DHT22;21030;53.912;15.214;2023-06-10T05:41:15;39.90;29.10
34815;DHT22;21030;53.912;15.214;2023-06-10T05:43:42;40.20;28.60
34815;DHT22;21030;53.912;15.214;2023-06-10T05:46:09;39.60;28.10
34815;DHT22;21030;53.912;15.214;2023-06-10T05:48:36;38.20;29.10
34815;DHT22;21030;53.912;15.214;2023-06-10T05:51:03;38.90;30.10
34815;DHT22;21030;53.912;15.214;2023-06-10T05:53:32;38.50;30.00
34815;DHT22;21030;53.912;15.214;2023-06-10T05:56:00;38.00;29.80
34815;DHT22;21030;53.912;15.214;2023-06-10T05:58:28;38.40;30.60
34815;DHT22;21030;53.912;15.214;2023-06-10T06:00:55;37.80;30.30
34815;DHT22;21030;53.912;15.214;2023-06-10T06:03:22;39.10;30.60
34815;DHT22;21030;53.912;15.214;2023-06-10T06:05:49;39.00;29.70
34815;DHT22;21030;53.912;15.214;2023-06-10T06:08:16;38.40;30.00
34815;DHT22;21030;53.912;15.214;2023-06-10T06:10:46;38.70;31.90
34815;DHT22;21030;53.912;15.214;2023-06-10T06:13:14;39.30;30.30
34815;DHT22;21030;53.912;15.214;2023-06-10T06:15:41;39.80;31.10
34815;DHT22;21030;53.912;15.214;2023-06-10T06:18:09;40.20;29.90
34815;DHT22;21030;53.912;15.214;2023-06-10T06:20:36;39.60;29.30
34815;DHT22;21030;53.912;15.214;2023-06-10T06:23:03;39.50;29.70
34815;DHT22;21030;53.912;15.214;2023-06-10T06:25:31;39.30;30.20
34815;DHT22;21030;53.912;15.214;2023-06-10T06:27:58;40.40;30.20
34815;DHT22;21030;53.912;15.214;2023-06-10T06:30:25;40.50;30.60
34815;DHT22;21030;53.912;15.214;2023-06-10T06:32:52;39.70;30.90
34815;DHT22;21030;53.912;15.214;2023-06-10T06:35:19;39.20;31.10
34815;DHT22;21030;53.912;15.214;2023-06-10T06:37:46;39.60;31.20
34815;DHT22;21030;53.912;15.214;2023-06-10T06:40:13;39.70;30.60
34815;DHT22;21030;53.912;15.214;2023-06-10T06:42:41;39.60;31.10
34815;DHT22;21030;53.912;15.214;2023-06-10T06:45:08;39.60;31.00
34815;DHT22;21030;53.912;15.214;2023-06-10T06:47:35;39.50;31.30
34815;DHT22;21030;53.912;15.214;2023-06-10T06:50:03;40.50;31.60
34815;DHT22;21030;53.912;15.214;2023-06-10T06:52:30;39.80;31.10
34815;DHT22;21030;53.912;15.214;2023-06-10T06:54:57;40.00;31.60
34815;DHT22;21030;53.912;15.214;2023-06-10T06:57:24;39.80;31.20
34815;DHT22;21030;53.912;15.214;2023-06-10T06:59:51;40.30;31.20
34815;DHT22;21030;53.912;15.214;2023-06-10T07:02:18;40.50;30.10
34815;DHT22;21030;53.912;15.214;2023-06-10T07:04:46;40.70;30.20
34815;DHT22;21030;53.912;15.214;2023-06-10T07:07:16;40.90;30.20
34815;DHT22;21030;53.912;15.214;2023-06-10T07:09:43;40.60;29.50
34815;DHT22;21030;53.912;15.214;2023-06-10T07:12:10;40.80;29.90
34815;DHT22;21030;53.912;15.214;2023-06-10T07:14:37;41.30;29.30
34815;DHT22;21030;53.912;15.214;2023-06-10T07:17:04;41.30;29.20
34815;DHT22;21030;53.912;15.214;2023-06-10T07:19:31;41.60;28.00
34815;DHT22;21030;53.912;15.214;2023-06-10T07:21:59;41.20;28.00
34815;DHT22;21030;53.912;15.214;2023-06-10T07:24:28;41.50;27.80
34815;DHT22;21030;53.912;15.214;2023-06-10T07:26:55;42.10;27.90
34815;DHT22;21030;53.912;15.214;2023-06-10T07:29:22;42.60;27.70
34815;DHT22;21030;53.912;15.214;2023-06-10T07:31:49;43.20;26.60
34815;DHT22;21030;53.912;15.214;2023-06-10T07:34:16;43.30;25.90
34815;DHT22;21030;53.912;15.214;2023-06-10T07:36:43;43.20;25.50
34815;DHT22;21030;53.912;15.214;2023-06-10T07:39:10;43.80;25.30
34815;DHT22;21030;53.912;15.214;2023-06-10T07:41:37;43.20;24.90
34815;DHT22;21030;53.912;15.214;2023-06-10T07:44:05;44.00;24.50
34815;DHT22;21030;53.912;15.214;2023-06-10T07:46:32;44.30;24.10
34815;DHT22;21030;53.912;15.214;2023-06-10T07:48:59;43.20;23.10
34815;DHT22;21030;53.912;15.214;2023-06-10T07:51:26;43.10;23.80
34815;DHT22;21030;53.912;15.214;2023-06-10T07:53:53;43.40;23.60
34815;DHT22;21030;53.912;15.214;2023-06-10T07:56:20;44.20;23.40
34815;DHT22;21030;53.912;15.214;2023-06-10T07:58:48;44.20;23.00
34815;DHT22;21030;53.912;15.214;2023-06-10T08:01:15;44.00;22.60
34815;DHT22;21030;53.912;15.214;2023-06-10T08:03:42;44.50;21.80
34815;DHT22;21030;53.912;15.214;2023-06-10T08:06:10;43.80;22.00
34815;DHT22;21030;53.912;15.214;2023-06-10T08:08:38;45.20;21.80
34815;DHT22;21030;53.912;15.214;2023-06-10T08:11:13;45.30;20.80
34815;DHT22;21030;53.912;15.214;2023-06-10T08:13:40;45.30;20.40
34815;DHT22;21030;53.912;15.214;2023-06-10T08:16:08;44.90;20.00
34815;DHT22;21030;53.912;15.214;2023-06-10T08:18:35;45.20;20.10
34815;DHT22;21030;53.912;15.214;2023-06-10T08:21:02;45.00;20.00
34815;DHT22;21030;53.912;15.214;2023-06-10T08:23:29;45.60;20.00
34815;DHT22;21030;53.912;15.214;2023-06-10T08:25:56;45.80;19.70
34815;DHT22;21030;53.912;15.214;2023-06-10T08:28:24;45.20;19.50
34815;DHT22;21030;53.912;15.214;2023-06-10T08:30:54;45.70;19.80
34815;DHT22;21030;53.912;15.214;2023-06-10T08:33:23;45.80;19.60
34815;DHT22;21030;53.912;15.214;2023-06-10T08:35:50;46.20;19.30
34815;DHT22;21030;53.912;15.214;2023-06-10T08:38:17;45.60;18.90
34815;DHT22;21030;53.912;15.214;2023-06-10T08:40:44;46.70;19.70
34815;DHT22;21030;53.912;15.214;2023-06-10T08:43:26;46.70;19.30
34815;DHT22;21030;53.912;15.214;2023-06-10T08:46:00;46.70;19.00
34815;DHT22;21030;53.912;15.214;2023-06-10T08:48:31;46.90;18.90
34815;DHT22;21030;53.912;15.214;2023-06-10T08:51:04;47.60;18.80
34815;DHT22;21030;53.912;15.214;2023-06-10T08:53:34;47.60;18.60
34815;DHT22;21030;53.912;15.214;2023-06-10T08:56:04;47.90;18.90
34815;DHT22;21030;53.912;15.214;2023-06-10T08:58:33;47.70;18.40
34815;DHT22;21030;53.912;15.214;2023-06-10T09:01:02;47.90;18.40
34815;DHT22;21030;53.912;15.214;2023-06-10T09:03:30;47.50;18.20
34815;DHT22;21030;53.912;15.214;2023-06-10T09:05:58;47.40;18.20
34815;DHT22;21030;53.912;15.214;2023-06-10T09:08:25;48.10;18.50
34815;DHT22;21030;53.912;15.214;2023-06-10T09:10:52;48.10;17.90
34815;DHT22;21030;53.912;15.214;2023-06-10T09:13:19;47.50;18.00
34815;DHT22;21030;53.912;15.214;2023-06-10T09:15:47;47.70;17.80
34815;DHT22;21030;53.912;15.214;2023-06-10T09:18:16;48.50;18.20
34815;DHT22;21030;53.912;15.214;2023-06-10T09:20:43;48.10;17.20
34815;DHT22;21030;53.912;15.214;2023-06-10T09:23:11;47.40;17.50
34815;DHT22;21030;53.912;15.214;2023-06-10T09:25:39;47.10;17.30
34815;DHT22;21030;53.912;15.214;2023-06-10T09:28:13;46.50;17.50
34815;DHT22;21030;53.912;15.214;2023-06-10T09:30:41;46.00;17.70
34815;DHT22;21030;53.912;15.214;2023-06-10T09:33:13;46.40;17.80
34815;DHT22;21030;53.912;15.214;2023-06-10T09:35:49;47.80;17.70
34815;DHT22;21030;53.912;15.214;2023-06-10T09:38:21;48.10;17.10
34815;DHT22;21030;53.912;15.214;2023-06-10T09:40:53;47.90;16.80
34815;DHT22;21030;53.912;15.214;2023-06-10T09:43:21;48.80;17.10
34815;DHT22;21030;53.912;15.214;2023-06-10T09:45:51;48.20;16.50
34815;DHT22;21030;53.912;15.214;2023-06-10T09:48:21;48.10;16.60
34815;DHT22;21030;53.912;15.214;2023-06-10T09:50:49;48.20;16.70
34815;DHT22;21030;53.912;15.214;2023-06-10T09:53:17;48.30;17.20
34815;DHT22;21030;53.912;15.214;2023-06-10T09:55:46;48.60;17.50
34815;DHT22;21030;53.912;15.214;2023-06-10T09:58:14;48.80;17.20
34815;DHT22;21030;53.912;15.214;2023-06-10T10:00:41;49.30;17.20
34815;DHT22;21030;53.912;15.214;2023-06-10T10:03:08;48.50;16.90
34815;DHT22;21030;53.912;15.214;2023-06-10T10:05:35;48.30;17.20
34815;DHT22;21030;53.912;15.214;2023-06-10T10:08:03;48.20;17.00
34815;DHT22;21030;53.912;15.214;2023-06-10T10:10:30;48.10;17.00
34815;DHT22;21030;53.912;15.214;2023-06-10T10:12:58;49.00;17.40
34815;DHT22;21030;53.912;15.214;2023-06-10T10:15:30;49.20;17.40
34815;DHT22;21030;53.912;15.214;2023-06-10T10:18:06;48.50;16.80
34815;DHT22;21030;53.912;15.214;2023-06-10T10:20:37;48.80;17.10
34815;DHT22;21030;53.912;15.214;2023-06-10T10:23:04;49.40;16.90
34815;DHT22;21030;53.912;15.214;2023-06-10T10:25:38;50.40;16.70
34815;DHT22;21030;53.912;15.214;2023-06-10T10:28:11;50.10;15.80
34815;DHT22;21030;53.912;15.214;2023-06-10T10:30:53;49.40;15.90
34815;DHT22;21030;53.912;15.214;2023-06-10T10:36:19;49.90;15.80
34815;DHT22;21030;53.912;15.214;2023-06-10T10:38:48;49.60;15.50
34815;DHT22;21030;53.912;15.214;2023-06-10T10:41:20;49.30;15.90
34815;DHT22;21030;53.912;15.214;2023-06-10T10:43:48;49.00;15.50
34815;DHT22;21030;53.912;15.214;2023-06-10T10:46:17;48.60;15.20
34815;DHT22;21030;53.912;15.214;2023-06-10T10:48:45;48.00;15.60
34815;DHT22;21030;53.912;15.214;2023-06-10T10:51:15;47.60;15.80
34815;DHT22;21030;53.912;15.214;2023-06-10T10:53:42;46.90;16.30
34815;DHT22;21030;53.912;15.214;2023-06-10T10:56:13;46.90;16.50
34815;DHT22;21030;53.912;15.214;2023-06-10T10:58:41;47.60;16.70
34815;DHT22;21030;53.912;15.214;2023-06-10T11:01:14;48.00;16.90
34815;DHT22;21030;53.912;15.214;2023-06-10T11:03:45;48.70;17.90
34815;DHT22;21030;53.912;15.214;2023-06-10T11:06:15;49.20;17.50
34815;DHT22;21030;53.912;15.214;2023-06-10T11:11:22;50.00;17.80
34815;DHT22;21030;53.912;15.214;2023-06-10T11:14:05;50.90;17.70
34815;DHT22;21030;53.912;15.214;2023-06-10T11:16:41;51.00;17.60
34815;DHT22;21030;53.912;15.214;2023-06-10T11:19:09;51.40;17.30
34815;DHT22;21030;53.912;15.214;2023-06-10T11:21:58;50.90;16.10
34815;DHT22;21030;53.912;15.214;2023-06-10T11:24:27;51.30;16.90
34815;DHT22;21030;53.912;15.214;2023-06-10T11:26:55;51.90;17.20
34815;DHT22;21030;53.912;15.214;2023-06-10T11:30:37;51.70;17.10
34815;DHT22;21030;53.912;15.214;2023-06-10T11:32:50;51.70;16.70
34815;DHT22;21030;53.912;15.214;2023-06-10T11:35:19;51.80;16.80
34815;DHT22;21030;53.912;15.214;2023-06-10T11:37:48;51.50;16.90
34815;DHT22;21030;53.912;15.214;2023-06-10T11:40:16;51.50;17.00
34815;DHT22;21030;53.912;15.214;2023-06-10T11:42:43;51.00;17.30
34815;DHT22;21030;53.912;15.214;2023-06-10T11:45:15;50.90;17.40
34815;DHT22;21030;53.912;15.214;2023-06-10T11:47:56;51.00;17.50
34815;DHT22;21030;53.912;15.214;2023-06-10T11:50:33;50.00;17.40
34815;DHT22;21030;53.912;15.214;2023-06-10T11:53:00;50.20;17.60
34815;DHT22;21030;53.912;15.214;2023-06-10T11:58:17;50.70;17.30
34815;DHT22;21030;53.912;15.214;2023-06-10T12:00:54;50.50;17.20
34815;DHT22;21030;53.912;15.214;2023-06-10T12:03:26;50.40;17.40
34815;DHT22;21030;53.912;15.214;2023-06-10T12:05:57;50.30;17.40
34815;DHT22;21030;53.912;15.214;2023-06-10T12:08:25;49.70;17.30
34815;DHT22;21030;53.912;15.214;2023-06-10T12:10:53;50.30;17.60
34815;DHT22;21030;53.912;15.214;2023-06-10T12:13:21;50.00;17.30
34815;DHT22;21030;53.912;15.214;2023-06-10T12:15:50;49.90;17.10
34815;DHT22;21030;53.912;15.214;2023-06-10T12:18:18;49.80;17.20
34815;DHT22;21030;53.912;15.214;2023-06-10T12:20:48;49.70;17.10
34815;DHT22;21030;53.912;15.214;2023-06-10T12:23:18;49.50;17.00
34815;DHT22;21030;53.912;15.214;2023-06-10T12:25:53;49.40;17.30
34815;DHT22;21030;53.912;15.214;2023-06-10T12:28:25;50.10;17.60
34815;DHT22;21030;53.912;15.214;2023-06-10T12:31:08;50.50;17.20
34815;DHT22;21030;53.912;15.214;2023-06-10T12:33:35;50.30;16.60
34815;DHT22;21030;53.912;15.214;2023-06-10T12:36:03;49.90;16.50
34815;DHT22;21030;53.912;15.214;2023-06-10T12:38:31;50.00;16.80
34815;DHT22;21030;53.912;15.214;2023-06-10T12:41:01;50.10;16.80
34815;DHT22;21030;53.912;15.214;2023-06-10T12:43:31;50.30;16.70
34815;DHT22;21030;53.912;15.214;2023-06-10T12:46:09;50.30;16.40
34815;DHT22;21030;53.912;15.214;2023-06-10T12:48:36;49.70;16.20
34815;DHT22;21030;53.912;15.214;2023-06-10T12:51:15;49.40;16.30
34815;DHT22;21030;53.912;15.214;2023-06-10T12:53:43;49.40;16.30
34815;DHT22;21030;53.912;15.214;2023-06-10T12:56:10;49.20;16.30
34815;DHT22;21030;53.912;15.214;2023-06-10T12:58:37;49.20;16.50
34815;DHT22;21030;53.912;15.214;2023-06-10T13:01:04;49.10;16.40
34815;DHT22;21030;53.912;15.214;2023-06-10T13:03:31;48.80;16.10
34815;DHT22;21030;53.912;15.214;2023-06-10T13:05:58;48.80;16.40
34815;DHT22;21030;53.912;15.214;2023-06-10T13:08:25;48.80;16.50
34815;DHT22;21030;53.912;15.214;2023-06-10T13:10:52;48.80;16.20
34815;DHT22;21030;53.912;15.214;2023-06-10T13:13:19;48.60;16.10
34815;DHT22;21030;53.912;15.214;2023-06-10T13:15:46;48.50;16.30
34815;DHT22;21030;53.912;15.214;2023-06-10T13:18:14;48.10;16.30
34815;DHT22;21030;53.912;15.214;2023-06-10T13:20:41;48.20;16.30
34815;DHT22;21030;53.912;15.214;2023-06-10T13:23:08;48.00;16.10
34815;DHT22;21030;53.912;15.214;2023-06-10T13:25:36;47.90;16.00
34815;DHT22;21030;53.912;15.214;2023-06-10T13:28:03;48.10;16.20
34815;DHT22;21030;53.912;15.214;2023-06-10T13:30:30;48.30;16.30
34815;DHT22;21030;53.912;15.214;2023-06-10T13:32:57;48.20;16.00
34815;DHT22;21030;53.912;15.214;2023-06-10T13:35:25;47.70;15.70
34815;DHT22;21030;53.912;15.214;2023-06-10T13:37:52;47.70;16.00
34815;DHT22;21030;53.912;15.214;2023-06-10T13:40:20;47.70;16.10
34815;DHT22;21030;53.912;15.214;2023-06-10T13:42:47;48.30;16.20
34815;DHT22;21030;53.912;15.214;2023-06-10T13:45:17;48.70;16.10
34815;DHT22;21030;53.912;15.214;2023-06-10T13:47:45;48.20;15.40
34815;DHT22;21030;53.912;15.214;2023-06-10T13:50:12;48.00;15.80
34815;DHT22;21030;53.912;15.214;2023-06-10T13:52:40;47.70;15.70
34815;DHT22;21030;53.912;15.214;2023-06-10T13:55:07;47.80;15.80
34815;DHT22;21030;53.912;15.214;2023-06-10T13:57:35;47.80;16.00
34815;DHT22;21030;53.912;15.214;2023-06-10T14:00:03;47.90;15.90
34815;DHT22;21030;53.912;15.214;2023-06-10T14:02:30;47.50;15.60
34815;DHT22;21030;53.912;15.214;2023-06-10T14:04:57;47.00;15.70
34815;DHT22;21030;53.912;15.214;2023-06-10T14:07:24;46.60;15.80
34815;DHT22;21030;53.912;15.214;2023-06-10T14:09:53;46.90;16.10
34815;DHT22;21030;53.912;15.214;2023-06-10T14:12:20;46.70;16.00
34815;DHT22;21030;53.912;15.214;2023-06-10T14:14:47;46.50;16.10
34815;DHT22;21030;53.912;15.214;2023-06-10T14:17:14;46.60;16.30
34815;DHT22;21030;53.912;15.214;2023-06-10T14:19:44;46.90;16.40
34815;DHT22;21030;53.912;15.214;2023-06-10T14:22:11;47.00;16.30
34815;DHT22;21030;53.912;15.214;2023-06-10T14:24:41;46.70;16.00
34815;DHT22;21030;53.912;15.214;2023-06-10T14:27:08;46.20;16.00
34815;DHT22;21030;53.912;15.214;2023-06-10T14:29:36;46.40;16.30
34815;DHT22;21030;53.912;15.214;2023-06-10T14:32:03;46.00;16.30
34815;DHT22;21030;53.912;15.214;2023-06-10T14:34:34;46.10;16.30
34815;DHT22;21030;53.912;15.214;2023-06-10T14:37:02;46.20;16.50
34815;DHT22;21030;53.912;15.214;2023-06-10T14:39:32;46.20;16.70
34815;DHT22;21030;53.912;15.214;2023-06-10T14:42:00;45.70;16.30
34815;DHT22;21030;53.912;15.214;2023-06-10T14:44:27;45.60;16.50
34815;DHT22;21030;53.912;15.214;2023-06-10T14:46:56;44.60;16.60
34815;DHT22;21030;53.912;15.214;2023-06-10T14:49:23;44.60;17.10
34815;DHT22;21030;53.912;15.214;2023-06-10T14:51:50;44.30;17.20
34815;DHT22;21030;53.912;15.214;2023-06-10T14:54:17;44.10;17.60
34815;DHT22;21030;53.912;15.214;2023-06-10T14:56:52;44.40;17.70
34815;DHT22;21030;53.912;15.214;2023-06-10T14:59:20;44.30;17.80
34815;DHT22;21030;53.912;15.214;2023-06-10T15:01:47;43.80;17.80
34815;DHT22;21030;53.912;15.214;2023-06-10T15:04:14;43.20;18.00
34815;DHT22;21030;53.912;15.214;2023-06-10T15:06:41;42.50;18.60
34815;DHT22;21030;53.912;15.214;2023-06-10T15:09:09;42.00;18.80
34815;DHT22;21030;53.912;15.214;2023-06-10T15:11:37;42.00;19.00
34815;DHT22;21030;53.912;15.214;2023-06-10T15:14:04;41.60;19.20
34815;DHT22;21030;53.912;15.214;2023-06-10T15:16:32;41.50;19.40
34815;DHT22;21030;53.912;15.214;2023-06-10T15:18:59;41.60;19.40
34815;DHT22;21030;53.912;15.214;2023-06-10T15:21:26;41.30;19.60
34815;DHT22;21030;53.912;15.214;2023-06-10T15:23:54;40.90;19.70
34815;DHT22;21030;53.912;15.214;2023-06-10T15:26:21;40.70;20.10
34815;DHT22;21030;53.912;15.214;2023-06-10T15:28:48;40.50;20.80
34815;DHT22;21030;53.912;15.214;2023-06-10T15:31:15;40.20;21.50
34815;DHT22;21030;53.912;15.214;2023-06-10T15:33:43;40.40;21.80
34815;DHT22;21030;53.912;15.214;2023-06-10T15:36:13;40.30;21.50
34815;DHT22;21030;53.912;15.214;2023-06-10T15:38:40;40.00;21.60